【歡迎隨處看看~別忘了留言讓我們知道你來過喔~我們也會回訪的^^】

目前日期文章:201904 (2)

瀏覽方式: 標題列表 簡短摘要
  • Apr 06 Sat 2019 13:04
  • Test

image.jpg

 

Test

image.jpg

 

sweetcastle 發表在 痞客邦 留言(0) 人氣()

METAR:

VHHH 010330Z 10010KT 9999 FEW023 SCT035 22/16 Q1020 NOSIG

TAF VHHH 312300Z 0100/0206 08015KT 7000 FEW015 SCT030 TX23/0106Z TX25/0206Z TN20/0122Z TEMPO 0110/0118 09020G30KT

 這是從8066看出去的視野

%E6%9C%AA%E5%91%BD%E5%90%8D


 作業車輛進出機場的1號檢查閘 


Test 

 

sweetcastle 發表在 痞客邦 留言(0) 人氣()